»·PEaware :: SWA496 KSMF-KPSP

SWA496 :: KSMF-KPSP

FLIGHT INFORMATION

Flight Status: Arrived
Operator:
Southwest Airlines
More flights by this operator :: More flights under this callsign
Pilot: Steve F. (26981)
Aircraft: BOEING 737-900
(B739)
More flights by this aircraft type
Origin: KSMF Sacramento Intl
United States
Destination: KPSP Palm Springs Intl
United States
More flights between these airports :: More routes between these airports
Route: FTHIL3 FRA OYVEY SIZLR3
File this flight plan on PilotEdge
Remarks:
Altitude:
(Current/Filed)
35,000ft
Speed:
(Current/Filed)
430kts
Departed: 04-Sep-23 05:47 PM
Arrived: 04-Sep-23 06:49 PM
Distance/Time
Traveled:
382nm/1:02
Distance/Time
To Go:
Arrived

Flight Plot

Page will automatically refresh every two minutes.

Flight plan parsing failed; only flown route is shown


Map Options




Map Legend


Flown Route
Filed Route
Departure Airport
Arrival Airport
Navaid (VOR, NDB)
Fix

Horizontal Profiles

Position Reports

Time Latitude Longitude Heading Altitude Ground
Speed
04-Sep-23 17:27 38.695267 -121.593994 358 35ft 0kts
04-Sep-23 17:28 38.695267 -121.593994 358 35ft 0kts
04-Sep-23 17:29 38.695267 -121.593994 358 35ft 0kts
04-Sep-23 17:30 38.695267 -121.593994 358 35ft 0kts
04-Sep-23 17:31 38.695267 -121.593994 358 35ft 0kts
04-Sep-23 17:32 38.695267 -121.593994 358 35ft 0kts
04-Sep-23 17:33 38.695267 -121.593994 358 35ft 0kts
04-Sep-23 17:34 38.695267 -121.593994 358 35ft 0kts
04-Sep-23 17:35 38.695267 -121.593994 358 35ft 0kts
04-Sep-23 17:36 38.695267 -121.593994 358 35ft 0kts
04-Sep-23 17:37 38.694944 -121.593985 358 35ft 2kts
04-Sep-23 17:38 38.694634 -121.593759 250 35ft 0kts
04-Sep-23 17:39 38.694634 -121.593759 250 35ft 0kts
04-Sep-23 17:40 38.694634 -121.593759 250 35ft 0kts
04-Sep-23 17:41 38.694672 -121.594689 271 35ft 10kts
04-Sep-23 17:42 38.695162 -121.598648 0 35ft 13kts
04-Sep-23 17:43 38.699954 -121.598583 0 35ft 20kts
04-Sep-23 17:44 38.705949 -121.598492 0 35ft 19kts
04-Sep-23 17:45 38.707152 -121.601000 219 35ft 6kts
04-Sep-23 17:46 38.678078 -121.601372 180 558ft 192kts
04-Sep-23 17:47 38.638198 -121.548921 123 3317ft 250kts
04-Sep-23 17:48 38.597518 -121.468435 123 6484ft 281kts
04-Sep-23 17:49 38.553833 -121.381705 123 9706ft 298kts
04-Sep-23 17:50 38.507346 -121.290453 123 12421ft 323kts
04-Sep-23 17:51 38.452814 -121.183298 123 13408ft 393kts
04-Sep-23 17:52 38.391550 -121.062898 124 15498ft 413kts
04-Sep-23 17:53 38.327466 -120.938144 124 17530ft 429kts
04-Sep-23 17:54 38.260769 -120.808875 125 19378ft 443kts
04-Sep-23 17:55 38.192332 -120.676041 125 21006ft 455kts
04-Sep-23 17:56 38.121351 -120.540019 125 22426ft 467kts
04-Sep-23 17:57 38.048450 -120.400917 126 23730ft 477kts
04-Sep-23 17:58 37.970824 -120.262860 130 24822ft 486kts
04-Sep-23 17:59 37.866998 -120.155681 153 25867ft 484kts
04-Sep-23 18:00 37.750046 -120.070883 154 27108ft 484kts
04-Sep-23 18:01 37.634078 -119.985108 154 28428ft 482kts
04-Sep-23 18:02 37.518514 -119.899298 154 29695ft 480kts
04-Sep-23 18:03 37.403472 -119.814493 155 30912ft 478kts
04-Sep-23 18:04 37.289118 -119.730254 155 32105ft 474kts
04-Sep-23 18:05 37.175679 -119.647406 155 33100ft 472kts
04-Sep-23 18:06 37.060525 -119.571254 163 33970ft 465kts
04-Sep-23 18:07 36.938684 -119.508637 163 34180ft 477kts
04-Sep-23 18:08 36.816711 -119.445305 163 34901ft 475kts
04-Sep-23 18:09 36.694252 -119.381375 163 34912ft 475kts
04-Sep-23 18:10 36.572359 -119.318127 163 34916ft 475kts
04-Sep-23 18:11 36.450212 -119.255023 163 34927ft 476kts
04-Sep-23 18:12 36.327915 -119.192058 163 34930ft 476kts
04-Sep-23 18:13 36.205468 -119.129227 163 34935ft 476kts
04-Sep-23 18:14 36.083530 -119.066777 163 34939ft 476kts
04-Sep-23 18:15 35.964721 -119.006167 163 34940ft 476kts
04-Sep-23 18:16 35.842258 -118.944054 163 34942ft 475kts
04-Sep-23 18:17 35.716626 -118.905834 177 34944ft 463kts
04-Sep-23 18:18 35.589072 -118.880992 177 34936ft 464kts
04-Sep-23 18:19 35.461695 -118.855739 177 34933ft 464kts
04-Sep-23 18:20 35.344473 -118.797334 151 34951ft 485kts
04-Sep-23 18:21 35.232727 -118.704321 152 34996ft 484kts
04-Sep-23 18:22 35.120699 -118.612821 152 35051ft 485kts
04-Sep-23 18:23 35.008294 -118.520910 151 33648ft 487kts
04-Sep-23 18:24 34.895529 -118.429262 150 31056ft 489kts
04-Sep-23 18:25 34.783685 -118.332575 141 28453ft 500kts
04-Sep-23 18:26 34.693813 -118.201583 130 25862ft 509kts
04-Sep-23 18:27 34.607399 -118.068125 130 23255ft 493kts
04-Sep-23 18:28 34.539293 -117.927514 117 21007ft 476kts
04-Sep-23 18:29 34.481745 -117.786444 118 19210ft 460kts
04-Sep-23 18:30 34.425646 -117.649231 117 17562ft 446kts
04-Sep-23 18:31 34.371039 -117.515841 117 16276ft 436kts
04-Sep-23 18:32 34.317131 -117.385023 117 16143ft 436kts
04-Sep-23 18:33 34.259525 -117.256059 120 16134ft 435kts
04-Sep-23 18:34 34.200504 -117.129778 120 16167ft 435kts
04-Sep-23 18:35 34.140607 -117.002788 120 16203ft 435kts
04-Sep-23 18:36 34.085114 -116.884445 120 15721ft 377kts
04-Sep-23 18:37 34.036333 -116.779489 117 14410ft 345kts
04-Sep-23 18:38 34.006831 -116.674392 108 12935ft 318kts
04-Sep-23 18:39 33.980562 -116.575972 108 11262ft 303kts
04-Sep-23 18:40 33.931865 -116.498697 135 9384ft 279kts
04-Sep-23 18:41 33.877669 -116.434333 135 6991ft 270kts
04-Sep-23 18:42 33.827264 -116.375024 135 5754ft 233kts
04-Sep-23 18:43 33.780062 -116.329026 176 4724ft 210kts
04-Sep-23 18:44 33.754903 -116.371125 276 3605ft 170kts
04-Sep-23 18:46 33.762188 -116.428554 290 2574ft 177kts
04-Sep-23 18:47 33.787884 -116.470364 320 1343ft 144kts
04-Sep-23 18:48 33.819863 -116.498960 321 551ft 139kts
04-Sep-23 18:49 33.832679 -116.511941 188 485ft 13kts
04-Sep-23 18:50 33.829288 -116.509476 143 485ft 23kts
04-Sep-23 18:51 33.824381 -116.506424 181 485ft 10kts
04-Sep-23 18:52 33.823908 -116.506502 189 485ft 0kts

Navigation Log

Ident Type
Flight plan parsing failed, navigation log unavailable